Terminal Aerodrome Forecast
Issued by NWS

Home | Current Version | Previous Version | Text Only | Print | Product List | Glossary On
Versions: 1 2 3 4 5 6 7 8 9 10 11 12 13 14 15 16 17 18 19 20
000
FTUS43 KPAH 031326 AAA
TAFCGI
TAF AMD
KCGI 031326Z 0313/0412 18006KT 2SM BR OVC004
      TEMPO 0313/0315 3/4SM -SHRA BR
     FM031500 20008KT 4SM -SHRA BR OVC007
     FM031900 21012G19KT 5SM -RA BR OVC005
     FM040000 23008KT 3SM -RA BR OVC004
     FM040400 33010KT 2SM -RA BR OVC003
     FM040700 01012KT 3SM BR OVC004
     FM041100 01012G18KT 4SM -SNPL BR OVC005=

USA.gov is the U.S. government's official web portal to all federal, state and local government web resources and services.